Time;durP1;ratioP1;P1;durP2;ratioP2;P2;SDS_P1;SDS_P2;PMS_P1;PMS_P2;Temp;Humidity;BMP_temperature;BMP_pressure;BME280_temperature;BME280_humidity;BME280_pressure;Samples;Min_cycle;Max_cycle;Signal;HPM_P1;HPM_P2
2022/12/04 00:01:26;;;;;;;23.75;15.55;;;;;;;;;;4928690;29;20027;-73
2022/12/04 00:03:57;;;;;;;22.50;14.82;;;;;;;;;;4931765;29;20469;-73
2022/12/04 00:06:24;;;;;;;21.20;14.60;;;;;;;;;;4931884;29;20034;-73
2022/12/04 00:08:51;;;;;;;23.17;14.90;;;;;;;;;;4930779;29;20032;-72
2022/12/04 00:11:19;;;;;;;25.75;15.60;;;;;;;;;;4932813;29;20500;-74
2022/12/04 00:13:46;;;;;;;21.52;14.85;;;;;;;;;;4933391;29;20068;-73
2022/12/04 00:16:15;;;;;;;22.00;15.73;;;;;;;;;;4932899;29;20039;-73
2022/12/04 00:18:41;;;;;;;22.77;15.00;;;;;;;;;;4933813;29;20062;-73
2022/12/04 00:21:09;;;;;;;23.88;15.73;;;;;;;;;;4931764;28;20055;-72
2022/12/04 00:23:36;;;;;;;23.08;15.15;;;;;;;;;;4913920;29;20035;-73
2022/12/04 00:26:11;;;;;;;23.48;14.20;;;;;;;;;;4927174;29;20074;-73
2022/12/04 00:28:37;;;;;;;22.75;14.35;;;;;;;;;;4932941;29;20397;-73
2022/12/04 00:31:08;;;;;;;25.15;14.77;;;;;;;;;;4933250;29;20550;-73
2022/12/04 00:33:34;;;;;;;27.42;15.77;;;;;;;;;;4932238;29;20040;-74
2022/12/04 00:36:03;;;;;;;24.83;14.93;;;;;;;;;;4937923;29;20031;-74
2022/12/04 00:38:29;;;;;;;21.55;13.95;;;;;;;;;;4936600;29;20039;-73
2022/12/04 00:40:55;;;;;;;25.48;14.45;;;;;;;;;;4934693;28;20060;-73
2022/12/04 00:43:22;;;;;;;22.92;14.55;;;;;;;;;;4935594;29;20057;-74
2022/12/04 00:45:48;;;;;;;23.38;14.13;;;;;;;;;;4953990;28;20481;-73
2022/12/04 00:48:15;;;;;;;20.83;13.43;;;;;;;;;;4938695;29;20039;-73
2022/12/04 00:50:40;;;;;;;18.13;12.35;;;;;;;;;;4935760;29;20062;-73
2022/12/04 00:53:07;;;;;;;18.35;12.10;;;;;;;;;;4937336;29;20513;-74
2022/12/04 00:55:33;;;;;;;21.42;13.07;;;;;;;;;;4940063;29;20041;-73
2022/12/04 00:57:59;;;;;;;20.05;12.20;;;;;;;;;;4940451;29;20131;-74
2022/12/04 01:00:25;;;;;;;17.73;12.25;;;;;;;;;;4937039;29;20075;-73
2022/12/04 01:02:51;;;;;;;19.55;12.60;;;;;;;;;;4939597;29;20051;-73
2022/12/04 01:05:17;;;;;;;20.42;12.55;;;;;;;;;;4940494;29;20493;-72
2022/12/04 01:07:43;;;;;;;16.67;11.35;;;;;;;;;;4939896;29;20501;-73
2022/12/04 01:10:11;;;;;;;17.63;11.55;;;;;;;;;;4939749;29;20035;-74
2022/12/04 01:12:37;;;;;;;16.92;10.70;;;;;;;;;;4936592;29;20042;-73
2022/12/04 01:15:04;;;;;;;16.40;11.02;;;;;;;;;;4940272;29;20032;-74
2022/12/04 01:17:30;;;;;;;16.95;11.50;;;;;;;;;;4940147;29;20031;-73
2022/12/04 01:19:55;;;;;;;17.75;12.48;;;;;;;;;;4938670;28;20024;-74
2022/12/04 01:22:21;;;;;;;17.55;12.45;;;;;;;;;;4936274;28;20067;-72
2022/12/04 01:24:47;;;;;;;15.38;10.10;;;;;;;;;;4944407;29;20051;-72
2022/12/04 01:27:13;;;;;;;13.68;10.73;;;;;;;;;;4938362;28;20038;-73
2022/12/04 01:29:39;;;;;;;15.52;10.32;;;;;;;;;;4942747;29;20035;-73
2022/12/04 01:32:05;;;;;;;18.65;10.32;;;;;;;;;;4938985;29;20035;-73
2022/12/04 01:34:31;;;;;;;14.93;9.90;;;;;;;;;;4939151;29;20031;-73
2022/12/04 01:36:57;;;;;;;14.48;10.10;;;;;;;;;;4939192;29;20031;-73
2022/12/04 01:39:22;;;;;;;14.65;10.55;;;;;;;;;;4940144;29;20024;-73
2022/12/04 01:41:48;;;;;;;14.65;9.68;;;;;;;;;;4939896;29;20075;-73
2022/12/04 01:44:20;;;;;;;14.38;9.75;;;;;;;;;;4938953;29;20451;-73
2022/12/04 01:46:54;;;;;;;14.68;9.93;;;;;;;;;;4937082;29;20071;-73
2022/12/04 01:49:45;;;;;;;15.55;10.13;;;;;;;;;;4934635;29;20039;-74
2022/12/04 01:52:14;;;;;;;12.52;8.93;;;;;;;;;;4935634;29;20072;-73
2022/12/04 01:54:45;;;;;;;18.00;10.80;;;;;;;;;;4934238;29;20161;-75
2022/12/04 01:57:18;;;;;;;16.83;10.57;;;;;;;;;;4933550;29;20421;-72
2022/12/04 01:59:51;;;;;;;14.65;10.85;;;;;;;;;;4936068;29;20060;-74
2022/12/04 02:02:21;;;;;;;;;;;;;;;;;;4936205;29;20509;-74
2022/12/04 02:04:47;;;;;;;17.77;11.15;;;;;;;;;;4936000;29;19914;-72
2022/12/04 02:07:13;;;;;;;15.60;10.32;;;;;;;;;;4936238;29;20130;-73
2022/12/04 02:09:40;;;;;;;14.02;10.13;;;;;;;;;;4936554;29;20110;-74
2022/12/04 02:12:17;;;;;;;16.50;10.82;;;;;;;;;;4949030;28;20062;-74
2022/12/04 02:14:55;;;;;;;17.83;12.23;;;;;;;;;;4936607;29;20200;-72
2022/12/04 02:17:36;;;;;;;22.40;15.00;;;;;;;;;;4935746;29;20166;-73
2022/12/04 02:20:12;;;;;;;23.63;14.18;;;;;;;;;;4936159;29;20039;-73
2022/12/04 02:23:08;;;;;;;20.17;14.43;;;;;;;;;;4936110;29;20043;-73
2022/12/04 02:25:42;;;;;;;21.05;13.18;;;;;;;;;;4934576;29;20070;-72
2022/12/04 02:28:11;;;;;;;20.55;13.55;;;;;;;;;;4935375;29;20043;-73
2022/12/04 02:30:40;;;;;;;21.73;15.15;;;;;;;;;;4935612;29;20054;-73
2022/12/04 02:33:25;;;;;;;23.25;15.05;;;;;;;;;;4935471;29;20028;-72
2022/12/04 02:36:10;;;;;;;27.10;17.10;;;;;;;;;;4935780;29;20035;-73
2022/12/04 02:38:40;;;;;;;27.70;17.98;;;;;;;;;;4925793;29;20087;-72
2022/12/04 02:41:26;;;;;;;27.00;18.02;;;;;;;;;;4933440;29;20397;-73
2022/12/04 02:44:02;;;;;;;22.23;16.05;;;;;;;;;;4933807;29;20107;-73
2022/12/04 02:46:41;;;;;;;21.63;14.63;;;;;;;;;;4931002;29;20036;-74
2022/12/04 02:49:14;;;;;;;17.95;13.68;;;;;;;;;;4937051;29;20107;-73
2022/12/04 02:51:44;;;;;;;15.73;12.35;;;;;;;;;;4935906;29;20097;-73
2022/12/04 02:54:34;;;;;;;17.58;12.75;;;;;;;;;;4935061;29;20031;-74
2022/12/04 02:57:03;;;;;;;18.30;13.32;;;;;;;;;;4932262;29;20031;-73
2022/12/04 02:59:37;;;;;;;20.45;12.88;;;;;;;;;;4934001;29;20501;-73
2022/12/04 03:02:10;;;;;;;18.65;13.02;;;;;;;;;;4934200;29;20032;-74
2022/12/04 03:04:38;;;;;;;19.48;13.10;;;;;;;;;;4939513;29;20042;-74
2022/12/04 03:07:13;;;;;;;19.27;12.68;;;;;;;;;;4938418;29;20040;-74
2022/12/04 03:10:03;;;;;;;20.02;12.52;;;;;;;;;;4936205;29;20039;-73
2022/12/04 03:12:37;;;;;;;20.20;13.55;;;;;;;;;;4935154;29;20031;-74
2022/12/04 03:15:13;;;;;;;21.73;13.48;;;;;;;;;;4934790;29;20043;-74
2022/12/04 03:17:54;;;;;;;21.30;12.57;;;;;;;;;;4934938;29;20046;-73
2022/12/04 03:20:22;;;;;;;17.52;13.10;;;;;;;;;;4932719;29;20052;-74
2022/12/04 03:22:54;;;;;;;18.88;13.35;;;;;;;;;;4931875;29;20023;-74
2022/12/04 03:25:25;;;;;;;20.17;12.60;;;;;;;;;;4931486;29;20122;-74
2022/12/04 03:27:58;;;;;;;20.70;12.43;;;;;;;;;;4931632;29;20043;-74
2022/12/04 03:30:29;;;;;;;16.65;12.52;;;;;;;;;;4929962;29;20043;-73
2022/12/04 03:33:07;;;;;;;21.55;12.80;;;;;;;;;;4934256;29;20035;-73
2022/12/04 03:35:44;;;;;;;22.05;12.52;;;;;;;;;;4934970;29;20143;-73
2022/12/04 03:38:19;;;;;;;23.80;13.82;;;;;;;;;;4934631;29;20042;-74
2022/12/04 03:41:10;;;;;;;23.92;16.63;;;;;;;;;;4933096;28;20047;-73
2022/12/04 03:43:52;;;;;;;22.13;15.52;;;;;;;;;;4932431;29;20023;-74
2022/12/04 03:46:37;;;;;;;23.25;14.15;;;;;;;;;;4927119;29;20040;-73
2022/12/04 03:49:50;;;;;;;23.58;13.82;;;;;;;;;;4932160;29;20032;-74
2022/12/04 03:52:28;;;;;;;20.60;13.55;;;;;;;;;;4916069;29;20393;-73
2022/12/04 03:55:01;;;;;;;23.33;14.18;;;;;;;;;;4933556;29;20098;-74
2022/12/04 03:57:35;;;;;;;20.85;13.25;;;;;;;;;;4929635;29;20044;-73
2022/12/04 04:00:10;;;;;;;20.55;12.95;;;;;;;;;;4932652;29;20052;-73
2022/12/04 04:02:41;;;;;;;21.70;14.48;;;;;;;;;;4934542;29;20500;-74
2022/12/04 04:05:10;;;;;;;24.35;13.80;;;;;;;;;;4934823;29;20118;-74
2022/12/04 04:07:42;;;;;;;18.80;13.52;;;;;;;;;;4934131;29;20107;-73
2022/12/04 04:10:29;;;;;;;22.65;13.98;;;;;;;;;;4932912;29;20042;-73
2022/12/04 04:24:25;;;;;;;20.17;13.65;;;;;;;;;;4932938;29;20094;-74
2022/12/04 04:26:53;;;;;;;19.02;13.63;;;;;;;;;;4926811;29;20867;-74
2022/12/04 04:29:18;;;;;;;20.45;13.60;;;;;;;;;;4931135;29;20525;-74
2022/12/04 04:31:58;;;;;;;24.25;14.32;;;;;;;;;;4931695;28;20047;-73
2022/12/04 04:34:30;;;;;;;21.35;13.98;;;;;;;;;;4929427;29;20540;-74
2022/12/04 04:37:05;;;;;;;21.73;14.88;;;;;;;;;;4934159;29;20044;-73
2022/12/04 04:39:39;;;;;;;21.63;14.88;;;;;;;;;;4931805;29;20038;-73
2022/12/04 04:42:09;;;;;;;;;;;;;;;;;;4932391;29;20094;-73
2022/12/04 04:44:52;;;;;;;23.35;15.15;;;;;;;;;;4932485;29;19934;-73
2022/12/04 04:47:26;;;;;;;21.27;14.43;;;;;;;;;;4924339;28;20047;-73
2022/12/04 04:49:54;;;;;;;22.23;14.68;;;;;;;;;;4931255;29;20043;-72
2022/12/04 04:52:21;;;;;;;23.73;17.98;;;;;;;;;;4932920;29;20500;-74
2022/12/04 04:54:47;;;;;;;23.88;15.77;;;;;;;;;;4931896;28;20054;-72
2022/12/04 04:57:23;;;;;;;26.98;17.08;;;;;;;;;;4932649;29;20032;-73
2022/12/04 04:59:50;;;;;;;21.10;14.82;;;;;;;;;;4932394;29;20063;-73
2022/12/04 05:02:16;;;;;;;22.27;14.43;;;;;;;;;;4929758;29;20119;-73
2022/12/04 05:04:42;;;;;;;19.48;13.27;;;;;;;;;;4932082;29;20040;-73
2022/12/04 05:07:08;;;;;;;21.80;14.30;;;;;;;;;;4933043;29;20038;-74
2022/12/04 05:09:34;;;;;;;28.95;15.57;;;;;;;;;;4931737;29;20448;-73
2022/12/04 05:12:00;;;;;;;23.35;14.35;;;;;;;;;;4933111;29;20500;-74
2022/12/04 05:14:25;;;;;;;24.30;14.85;;;;;;;;;;4931406;29;20031;-73
2022/12/04 05:16:51;;;;;;;22.27;14.38;;;;;;;;;;4928960;29;20531;-72
2022/12/04 05:22:04;;;;;;;25.65;14.00;;;;;;;;;;4928339;29;20043;-73
2022/12/04 05:24:30;;;;;;;21.25;14.82;;;;;;;;;;4936075;29;20024;-74
2022/12/04 05:26:56;;;;;;;20.95;14.88;;;;;;;;;;4934874;29;20278;-73
2022/12/04 05:29:22;;;;;;;21.63;14.77;;;;;;;;;;4935446;29;20481;-73
2022/12/04 05:31:48;;;;;;;20.50;15.20;;;;;;;;;;4928356;29;20040;-74
2022/12/04 05:34:13;;;;;;;25.00;15.20;;;;;;;;;;4933529;29;20051;-73
2022/12/04 05:36:39;;;;;;;23.02;14.05;;;;;;;;;;4933481;29;20147;-74
2022/12/04 05:39:05;;;;;;;24.90;15.80;;;;;;;;;;4936945;29;20424;-72
2022/12/04 05:41:31;;;;;;;29.02;17.10;;;;;;;;;;4936333;29;20047;-73
2022/12/04 05:43:58;;;;;;;24.27;15.63;;;;;;;;;;4936321;29;20067;-73
2022/12/04 05:46:24;;;;;;;23.65;16.05;;;;;;;;;;4936638;29;20039;-73
2022/12/04 05:48:50;;;;;;;19.45;13.45;;;;;;;;;;4937261;29;20027;-72
2022/12/04 05:51:16;;;;;;;23.10;13.77;;;;;;;;;;4934018;29;20043;-75
2022/12/04 05:53:42;;;;;;;22.73;14.32;;;;;;;;;;4935287;29;20050;-73
2022/12/04 05:56:08;;;;;;;26.00;14.50;;;;;;;;;;4934714;29;20035;-73
2022/12/04 05:58:35;;;;;;;19.58;13.43;;;;;;;;;;4936555;29;20511;-73
2022/12/04 06:01:08;;;;;;;24.92;15.80;;;;;;;;;;4934427;29;20098;-73
2022/12/04 06:03:34;;;;;;;24.15;15.98;;;;;;;;;;4936239;29;20386;-73
2022/12/04 06:06:00;;;;;;;25.17;14.70;;;;;;;;;;4936000;29;20086;-73
2022/12/04 06:08:26;;;;;;;23.25;13.93;;;;;;;;;;4933276;29;20035;-73
2022/12/04 06:10:52;;;;;;;20.30;14.00;;;;;;;;;;4932903;29;20027;-74
2022/12/04 06:13:18;;;;;;;20.58;13.35;;;;;;;;;;4941039;29;20023;-75
2022/12/04 06:15:44;;;;;;;18.55;13.07;;;;;;;;;;4941607;29;20091;-74
2022/12/04 06:18:10;;;;;;;19.25;12.45;;;;;;;;;;4942130;29;20512;-73
2022/12/04 06:20:36;;;;;;;20.08;13.07;;;;;;;;;;4941841;29;20039;-74
2022/12/04 06:23:02;;;;;;;17.30;11.98;;;;;;;;;;4937267;29;20051;-72
2022/12/04 06:25:28;;;;;;;17.05;11.63;;;;;;;;;;4936676;29;20114;-72
2022/12/04 06:27:54;;;;;;;20.90;12.40;;;;;;;;;;4930934;29;20110;-73
2022/12/04 06:30:20;;;;;;;18.58;10.82;;;;;;;;;;4936707;29;20039;-73
2022/12/04 06:32:46;;;;;;;15.05;10.18;;;;;;;;;;4936239;29;20481;-73
2022/12/04 06:35:12;;;;;;;13.02;9.43;;;;;;;;;;4936254;29;20078;-73
2022/12/04 06:37:38;;;;;;;14.38;9.60;;;;;;;;;;4935958;29;20039;-74
2022/12/04 06:40:04;;;;;;;18.05;10.95;;;;;;;;;;4934345;29;20046;-73
2022/12/04 06:42:30;;;;;;;15.77;10.70;;;;;;;;;;4935552;29;20034;-73
2022/12/04 06:44:56;;;;;;;19.17;10.75;;;;;;;;;;4933191;29;20508;-73
2022/12/04 06:47:22;;;;;;;16.73;11.35;;;;;;;;;;4937104;29;20106;-74
2022/12/04 06:49:50;;;;;;;19.80;12.43;;;;;;;;;;4937194;29;20028;-74
2022/12/04 06:52:17;;;;;;;20.20;12.00;;;;;;;;;;4937555;28;20032;-74
2022/12/04 06:54:44;;;;;;;20.35;12.07;;;;;;;;;;4919341;29;20047;-73
2022/12/04 06:57:10;;;;;;;18.30;12.00;;;;;;;;;;4937028;29;20409;-73
2022/12/04 06:59:35;;;;;;;19.08;13.55;;;;;;;;;;4936876;29;20532;-73
2022/12/04 07:02:02;;;;;;;25.00;12.40;;;;;;;;;;4937454;29;20039;-74
2022/12/04 07:04:27;;;;;;;17.67;12.02;;;;;;;;;;4936909;29;20123;-74
2022/12/04 07:06:53;;;;;;;15.50;10.88;;;;;;;;;;4937200;29;20059;-74
2022/12/04 07:09:19;;;;;;;16.08;10.75;;;;;;;;;;4936523;29;20023;-73
2022/12/04 07:11:45;;;;;;;18.10;11.45;;;;;;;;;;4936422;29;20039;-73
2022/12/04 07:14:12;;;;;;;19.95;12.00;;;;;;;;;;4936393;29;20031;-73
2022/12/04 07:16:39;;;;;;;17.60;11.50;;;;;;;;;;4936589;29;20493;-73
2022/12/04 07:19:06;;;;;;;18.77;11.27;;;;;;;;;;4936334;29;20055;-74
2022/12/04 07:21:33;;;;;;;17.42;11.05;;;;;;;;;;4936400;29;20508;-74
2022/12/04 07:24:00;;;;;;;18.73;11.68;;;;;;;;;;4936229;29;20035;-74
2022/12/04 07:26:27;;;;;;;16.70;10.98;;;;;;;;;;4935789;29;20035;-73
2022/12/04 07:28:54;;;;;;;16.00;9.40;;;;;;;;;;4935711;29;20028;-73
2022/12/04 07:31:21;;;;;;;14.95;9.65;;;;;;;;;;4950259;29;20027;-73
2022/12/04 07:33:48;;;;;;;16.25;9.75;;;;;;;;;;4934327;29;20046;-73
2022/12/04 07:36:16;;;;;;;14.25;9.50;;;;;;;;;;4934433;29;20028;-74
2022/12/04 07:38:42;;;;;;;13.88;8.27;;;;;;;;;;4935436;29;20070;-74
2022/12/04 07:41:10;;;;;;;13.30;8.88;;;;;;;;;;4935307;29;20098;-74
2022/12/04 07:43:37;;;;;;;14.50;8.80;;;;;;;;;;4935785;29;20035;-72
2022/12/04 07:46:25;;;;;;;14.43;9.25;;;;;;;;;;4935613;29;20047;-71
2022/12/04 07:48:54;;;;;;;10.82;7.60;;;;;;;;;;4931913;29;20153;-73
2022/12/04 07:51:22;;;;;;;12.63;8.35;;;;;;;;;;4933329;29;20764;-72
2022/12/04 07:53:50;;;;;;;13.40;8.32;;;;;;;;;;4934959;29;20572;-72
2022/12/04 07:56:17;;;;;;;13.30;8.10;;;;;;;;;;4933560;29;20090;-76
2022/12/04 07:58:45;;;;;;;12.75;8.23;;;;;;;;;;4934622;29;20549;-75
2022/12/04 08:01:20;;;;;;;10.40;7.25;;;;;;;;;;4934788;29;20114;-75
2022/12/04 08:03:50;;;;;;;9.48;6.22;;;;;;;;;;4934279;29;21144;-75
2022/12/04 08:06:20;;;;;;;11.55;6.60;;;;;;;;;;4934840;29;20024;-76
2022/12/04 08:08:49;;;;;;;9.05;6.35;;;;;;;;;;4933090;29;20048;-75
2022/12/04 08:11:18;;;;;;;7.22;5.68;;;;;;;;;;4933080;29;20024;-77
2022/12/04 08:13:44;;;;;;;7.15;5.57;;;;;;;;;;4936200;29;20035;-74
2022/12/04 08:16:11;;;;;;;8.05;6.22;;;;;;;;;;4934077;29;20505;-76
2022/12/04 08:18:38;;;;;;;10.57;6.35;;;;;;;;;;4933451;29;20043;-75
2022/12/04 08:21:09;;;;;;;8.65;5.47;;;;;;;;;;4934634;29;20027;-76
2022/12/04 08:23:36;;;;;;;9.07;6.05;;;;;;;;;;4934865;29;20516;-76
2022/12/04 08:26:04;;;;;;;11.50;7.28;;;;;;;;;;4934621;29;20393;-75
2022/12/04 08:28:31;;;;;;;11.20;7.22;;;;;;;;;;4933238;29;20040;-75
2022/12/04 08:31:11;;;;;;;9.63;6.97;;;;;;;;;;4930039;29;20103;-76
2022/12/04 08:33:37;;;;;;;10.82;7.00;;;;;;;;;;4934107;29;20061;-75
2022/12/04 08:36:12;;;;;;;10.90;7.32;;;;;;;;;;4949360;29;20020;-75
2022/12/04 08:38:38;;;;;;;9.23;7.20;;;;;;;;;;4945579;29;20047;-75
2022/12/04 08:41:07;;;;;;;11.15;7.68;;;;;;;;;;4934577;29;20024;-75
2022/12/04 08:43:34;;;;;;;13.02;8.02;;;;;;;;;;4919152;29;20043;-76
2022/12/04 08:46:04;;;;;;;11.85;8.02;;;;;;;;;;4915410;29;20032;-76
2022/12/04 08:48:31;;;;;;;10.82;7.28;;;;;;;;;;4933033;29;20031;-76
2022/12/04 08:50:57;;;;;;;11.73;6.88;;;;;;;;;;4934901;29;20032;-74
2022/12/04 08:53:24;;;;;;;11.68;7.82;;;;;;;;;;4935440;29;20032;-75
2022/12/04 08:55:51;;;;;;;12.05;7.43;;;;;;;;;;4944185;29;20469;-73
2022/12/04 08:58:17;;;;;;;10.55;7.35;;;;;;;;;;4935872;29;20036;-74
2022/12/04 09:00:43;;;;;;;9.85;7.25;;;;;;;;;;4937465;29;20055;-73
2022/12/04 09:03:15;;;;;;;8.50;6.05;;;;;;;;;;4934038;29;20065;-75
2022/12/04 09:05:44;;;;;;;10.40;6.85;;;;;;;;;;4918247;29;20044;-75
2022/12/04 09:08:13;;;;;;;9.90;7.53;;;;;;;;;;4926008;29;20057;-75
2022/12/04 09:10:41;;;;;;;8.88;5.18;;;;;;;;;;4937903;29;20441;-78
2022/12/04 09:13:09;;;;;;;9.23;6.05;;;;;;;;;;4936935;29;20111;-76
2022/12/04 09:15:38;;;;;;;8.93;5.30;;;;;;;;;;4934406;29;20059;-78
2022/12/04 09:18:05;;;;;;;7.65;4.65;;;;;;;;;;4937429;29;20036;-75
2022/12/04 09:20:32;;;;;;;4.38;2.90;;;;;;;;;;4932424;29;20084;-74
2022/12/04 09:22:59;;;;;;;3.47;2.30;;;;;;;;;;4920591;29;20134;-73
2022/12/04 09:25:24;;;;;;;4.72;2.85;;;;;;;;;;4920620;29;20075;-75
2022/12/04 09:27:50;;;;;;;6.85;3.22;;;;;;;;;;4932890;29;20035;-75
2022/12/04 09:30:17;;;;;;;5.63;3.83;;;;;;;;;;4938613;29;20031;-75
2022/12/04 09:32:42;;;;;;;5.50;3.25;;;;;;;;;;4936782;29;20078;-76
2022/12/04 09:35:09;;;;;;;6.30;3.63;;;;;;;;;;4938032;29;20051;-75
2022/12/04 09:37:38;;;;;;;7.05;4.95;;;;;;;;;;4937969;29;20036;-75
2022/12/04 09:40:05;;;;;;;19.27;8.00;;;;;;;;;;4951980;29;20032;-75
2022/12/04 09:42:34;;;;;;;17.52;9.63;;;;;;;;;;4938256;29;20028;-76
2022/12/04 09:45:16;;;;;;;18.67;9.55;;;;;;;;;;4937877;29;20036;-75
2022/12/04 09:47:45;;;;;;;18.17;9.85;;;;;;;;;;4944653;29;20036;-75
2022/12/04 09:50:22;;;;;;;23.33;9.73;;;;;;;;;;4918764;29;20392;-76
2022/12/04 09:52:58;;;;;;;31.88;10.43;;;;;;;;;;4918604;29;20043;-75
2022/12/04 09:55:52;;;;;;;40.28;11.57;;;;;;;;;;4918587;29;20051;-74
2022/12/04 09:58:22;;;;;;;18.10;9.32;;;;;;;;;;4919103;29;20048;-74
2022/12/04 10:00:53;;;;;;;27.45;9.30;;;;;;;;;;4918627;29;20059;-77
2022/12/04 10:03:26;;;;;;;36.25;9.18;;;;;;;;;;4917077;29;20552;-74
2022/12/04 10:06:13;;;;;;;20.77;10.95;;;;;;;;;;4933200;29;20039;-76
2022/12/04 10:08:51;;;;;;;24.35;9.63;;;;;;;;;;4918176;29;20047;-76
2022/12/04 10:11:48;;;;;;;23.85;7.70;;;;;;;;;;4921822;29;20532;-74
2022/12/04 10:14:33;;;;;;;22.90;8.95;;;;;;;;;;4937021;29;20036;-75
2022/12/04 10:17:15;;;;;;;20.88;8.63;;;;;;;;;;4933459;29;20067;-76
2022/12/04 10:20:19;;;;;;;19.95;8.52;;;;;;;;;;4947278;29;20075;-74
2022/12/04 10:22:57;;;;;;;;;;;;;;;;;;4925030;29;20039;-73
2022/12/04 10:25:25;;;;;;;27.67;11.35;;;;;;;;;;4935013;29;19922;-75
2022/12/04 10:28:24;;;;;;;42.22;12.95;;;;;;;;;;4936034;28;20035;-78
2022/12/04 10:30:54;;;;;;;38.67;9.98;;;;;;;;;;4937741;29;20054;-78
2022/12/04 10:33:44;;;;;;;31.08;9.82;;;;;;;;;;4936778;29;20243;-76
2022/12/04 10:36:22;;;;;;;26.08;9.27;;;;;;;;;;4935223;29;20031;-77
2022/12/04 10:38:56;;;;;;;18.17;10.27;;;;;;;;;;4925552;29;20039;-75
2022/12/04 10:41:34;;;;;;;30.98;12.40;;;;;;;;;;4935069;29;20039;-74
2022/12/04 10:44:00;;;;;;;25.10;11.60;;;;;;;;;;4935152;29;20039;-75
2022/12/04 10:46:31;;;;;;;17.70;11.57;;;;;;;;;;4936732;29;20032;-76
2022/12/04 10:49:05;;;;;;;14.98;9.75;;;;;;;;;;4933284;29;20404;-74
2022/12/04 10:51:41;;;;;;;19.75;9.55;;;;;;;;;;4917721;29;20032;-76
2022/12/04 10:54:33;;;;;;;7.55;5.68;;;;;;;;;;4917599;29;20111;-76
2022/12/04 10:57:02;;;;;;;21.13;7.80;;;;;;;;;;4916344;29;20106;-76
2022/12/04 10:59:28;;;;;;;18.13;7.07;;;;;;;;;;4917133;29;20063;-76
2022/12/04 11:02:01;;;;;;;17.02;6.47;;;;;;;;;;4915618;29;20032;-76
2022/12/04 11:04:31;;;;;;;12.65;7.03;;;;;;;;;;4917324;29;20068;-75
2022/12/04 11:07:24;;;;;;;11.43;5.93;;;;;;;;;;4884899;29;20486;-75
2022/12/04 11:09:55;;;;;;;14.85;6.60;;;;;;;;;;4915453;29;20036;-75
2022/12/04 11:12:22;;;;;;;10.20;5.68;;;;;;;;;;4929969;29;20036;-76
2022/12/04 11:14:59;;;;;;;9.18;6.20;;;;;;;;;;4916754;29;20024;-76
2022/12/04 11:17:26;;;;;;;5.25;3.22;;;;;;;;;;4915948;29;20119;-74
2022/12/04 11:20:05;;;;;;;7.25;3.72;;;;;;;;;;4916079;29;20058;-78
2022/12/04 11:22:33;;;;;;;9.25;4.30;;;;;;;;;;4918011;29;20043;-77
2022/12/04 11:24:59;;;;;;;8.68;4.85;;;;;;;;;;4916423;29;20028;-77
2022/12/04 11:27:30;;;;;;;7.25;2.88;;;;;;;;;;4918648;29;20040;-77
2022/12/04 11:30:00;;;;;;;5.90;3.65;;;;;;;;;;4918298;29;20091;-76
2022/12/04 11:32:32;;;;;;;8.68;4.45;;;;;;;;;;4917096;29;20039;-76
2022/12/04 11:35:03;;;;;;;8.52;3.97;;;;;;;;;;4917082;29;20126;-76
2022/12/04 11:37:32;;;;;;;6.28;4.28;;;;;;;;;;4916951;29;20088;-76
2022/12/04 11:40:00;;;;;;;6.00;3.47;;;;;;;;;;4915995;29;20032;-75
2022/12/04 11:42:29;;;;;;;9.40;5.07;;;;;;;;;;4917356;29;20044;-77
2022/12/04 11:45:00;;;;;;;11.88;5.38;;;;;;;;;;4917473;29;20094;-75
2022/12/04 11:47:29;;;;;;;8.85;4.15;;;;;;;;;;4918028;29;20577;-77
2022/12/04 11:50:10;;;;;;;7.55;3.42;;;;;;;;;;4931969;29;20141;-77
2022/12/04 11:52:55;;;;;;;10.25;4.95;;;;;;;;;;4917441;29;20040;-78
2022/12/04 11:55:30;;;;;;;9.95;4.88;;;;;;;;;;4918366;29;20123;-76
2022/12/04 11:58:27;;;;;;;8.90;3.40;;;;;;;;;;4931384;29;20032;-76
2022/12/04 12:01:18;;;;;;;7.90;4.68;;;;;;;;;;4916738;29;20421;-76
2022/12/04 12:04:15;;;;;;;8.80;4.97;;;;;;;;;;4917081;29;20028;-75
2022/12/04 12:07:05;;;;;;;7.25;4.65;;;;;;;;;;4905344;29;20056;-75
2022/12/04 12:09:36;;;;;;;11.02;5.07;;;;;;;;;;4916658;29;20394;-74
2022/12/04 12:12:11;;;;;;;8.90;4.90;;;;;;;;;;4916076;29;20437;-75
2022/12/04 12:14:43;;;;;;;8.35;4.88;;;;;;;;;;4914794;29;20063;-74
2022/12/04 12:17:14;;;;;;;11.10;5.78;;;;;;;;;;4934659;29;20039;-77
2022/12/04 12:19:46;;;;;;;8.50;4.50;;;;;;;;;;4920239;29;20451;-76
2022/12/04 12:22:51;;;;;;;8.38;5.30;;;;;;;;;;4924395;29;20036;-76
2022/12/04 12:25:44;;;;;;;9.80;5.38;;;;;;;;;;4934757;29;20047;-74
2022/12/04 12:28:26;;;;;;;13.85;5.43;;;;;;;;;;4935326;29;20046;-76
2022/12/04 12:31:03;;;;;;;8.77;5.15;;;;;;;;;;4933143;29;20123;-75
2022/12/04 12:33:37;;;;;;;7.25;4.28;;;;;;;;;;4934676;29;20086;-74
2022/12/04 12:36:10;;;;;;;13.35;4.85;;;;;;;;;;4934700;29;20035;-75
2022/12/04 12:38:46;;;;;;;;;;;;;;;;;;4935710;29;20054;-76
2022/12/04 12:41:20;;;;;;;13.55;6.28;;;;;;;;;;4934605;29;20367;-75
2022/12/04 12:44:04;;;;;;;12.73;6.22;;;;;;;;;;4949039;29;20059;-75
2022/12/04 12:46:36;;;;;;;6.03;4.00;;;;;;;;;;4933130;29;20117;-76
2022/12/04 12:49:21;;;;;;;7.03;3.72;;;;;;;;;;4915703;29;20469;-76
2022/12/04 12:51:57;;;;;;;6.15;3.78;;;;;;;;;;4916206;29;20040;-76
2022/12/04 12:54:42;;;;;;;7.60;4.20;;;;;;;;;;4915972;29;20035;-74
2022/12/04 12:57:21;;;;;;;5.85;3.80;;;;;;;;;;4914586;29;20047;-76
2022/12/04 13:00:06;;;;;;;6.45;3.55;;;;;;;;;;4918810;29;20087;-75
2022/12/04 13:02:44;;;;;;;4.53;3.50;;;;;;;;;;4935165;29;20067;-76
2022/12/04 13:05:13;;;;;;;7.78;4.35;;;;;;;;;;4933349;29;20044;-75
2022/12/04 13:07:49;;;;;;;7.20;3.70;;;;;;;;;;4933990;29;20474;-75
2022/12/04 13:10:21;;;;;;;7.47;3.85;;;;;;;;;;4933938;29;20070;-74
2022/12/04 13:12:57;;;;;;;6.07;4.00;;;;;;;;;;4935013;29;20040;-76
2022/12/04 13:15:50;;;;;;;7.15;3.50;;;;;;;;;;4936660;29;20074;-76
2022/12/04 13:18:42;;;;;;;8.07;5.13;;;;;;;;;;4942158;29;20054;-75
2022/12/04 13:21:31;;;;;;;4.65;3.10;;;;;;;;;;4938561;29;20071;-75
2022/12/04 13:24:18;;;;;;;5.03;3.40;;;;;;;;;;4938557;29;20059;-77
2022/12/04 13:26:59;;;;;;;5.20;3.70;;;;;;;;;;4934889;29;20042;-75
2022/12/04 13:29:53;;;;;;;5.43;3.45;;;;;;;;;;4935303;29;20084;-77
2022/12/04 13:32:47;;;;;;;6.43;3.40;;;;;;;;;;4935039;29;20382;-75
2022/12/04 13:35:38;;;;;;;5.50;3.05;;;;;;;;;;4935141;29;20032;-75
2022/12/04 13:38:17;;;;;;;5.78;3.70;;;;;;;;;;4933605;29;20046;-74
2022/12/04 13:40:50;;;;;;;6.43;4.00;;;;;;;;;;4934924;29;20031;-74
2022/12/04 13:43:32;;;;;;;5.07;3.10;;;;;;;;;;4935599;29;20032;-75
2022/12/04 13:46:04;;;;;;;5.20;2.95;;;;;;;;;;4940014;29;20139;-75
2022/12/04 13:48:40;;;;;;;7.30;3.97;;;;;;;;;;4938876;29;20481;-75
2022/12/04 13:51:20;;;;;;;6.72;3.75;;;;;;;;;;4927839;29;20048;-75
2022/12/04 13:53:47;;;;;;;5.53;3.72;;;;;;;;;;4918984;29;20485;-74
2022/12/04 13:56:26;;;;;;;8.18;4.10;;;;;;;;;;4919313;29;20090;-74
2022/12/04 13:59:18;;;;;;;4.35;3.10;;;;;;;;;;4919056;29;20036;-74
2022/12/04 14:01:48;;;;;;;5.93;2.80;;;;;;;;;;4917844;29;20036;-73
2022/12/04 14:04:36;;;;;;;6.78;3.80;;;;;;;;;;4918918;29;20084;-76
2022/12/04 14:07:03;;;;;;;5.53;3.60;;;;;;;;;;4918284;29;20046;-76
2022/12/04 14:09:38;;;;;;;8.75;4.75;;;;;;;;;;4919830;29;20028;-74
2022/12/04 14:12:07;;;;;;;6.65;4.43;;;;;;;;;;4917949;29;20076;-75
2022/12/04 14:14:42;;;;;;;6.03;3.70;;;;;;;;;;4918577;29;20453;-75
2022/12/04 14:17:24;;;;;;;5.82;3.47;;;;;;;;;;4918821;29;20131;-75
2022/12/04 14:19:53;;;;;;;8.05;3.97;;;;;;;;;;4919795;29;20060;-75
2022/12/04 14:22:48;;;;;;;7.95;4.82;;;;;;;;;;4920166;29;20050;-74
2022/12/04 14:25:14;;;;;;;6.63;3.85;;;;;;;;;;4922400;29;20043;-74
2022/12/04 14:27:39;;;;;;;9.90;4.55;;;;;;;;;;4919248;29;20106;-75
2022/12/04 14:30:33;;;;;;;9.95;5.72;;;;;;;;;;4918343;29;20040;-75
2022/12/04 14:33:17;;;;;;;18.33;6.68;;;;;;;;;;4915788;29;20458;-74
2022/12/04 14:36:03;;;;;;;;;;;;;;;;;;4918626;29;20493;-75
2022/12/04 14:38:30;;;;;;;5.80;3.35;;;;;;;;;;4918151;29;20349;-76
2022/12/04 14:40:57;;;;;;;4.68;2.75;;;;;;;;;;4917175;29;20028;-74
2022/12/04 14:43:38;;;;;;;7.45;3.60;;;;;;;;;;4932370;29;20032;-74
2022/12/04 14:46:24;;;;;;;7.75;4.07;;;;;;;;;;4917990;29;20135;-74
2022/12/04 14:49:20;;;;;;;11.20;6.72;;;;;;;;;;4931561;29;20036;-75
2022/12/04 14:52:10;;;;;;;6.40;2.90;;;;;;;;;;4917952;29;20405;-74
2022/12/04 14:54:47;;;;;;;5.57;3.38;;;;;;;;;;4917647;29;20111;-76
2022/12/04 14:57:27;;;;;;;5.75;3.65;;;;;;;;;;4917880;29;20075;-76
2022/12/04 14:59:54;;;;;;;6.28;3.58;;;;;;;;;;4920966;29;20470;-74
2022/12/04 15:02:26;;;;;;;6.07;3.80;;;;;;;;;;4936048;29;20036;-75
2022/12/04 15:04:53;;;;;;;4.82;3.05;;;;;;;;;;4934327;29;20087;-75
2022/12/04 15:07:28;;;;;;;8.43;4.15;;;;;;;;;;4935828;29;20067;-74
2022/12/04 15:12:52;;;;;;;4.93;2.90;;;;;;;;;;4934701;29;20039;-75
2022/12/04 15:15:27;;;;;;;5.47;3.08;;;;;;;;;;4934849;29;20039;-75
2022/12/04 15:18:14;;;;;;;5.97;2.83;;;;;;;;;;4934688;29;20043;-75